aviador You're here:

CYBK Decoded Metar

BAKER LAKE in NU, CANADA
Report Time2017-10-20 15:00:00
UTC Time2017-10-20 16:07:50
Flight Rules Old
Wind150° at 19 kt
W.Decomp.*RWY 16: 18.9 kt HW 2.3 kt LCW
W.Rank150° ranks 19
Current wind is above 150° avg. (8.8)
Visibility9999 m
Phenomena:N/A
Clouds:Few 010 Hf
Overcast 025 Hf
Expected CloudBase > 800 ft AGL from Temp-Dew spread
Ceiling2,500 ft
Temp-3°C (ISA -18)
Dew Point-5°C (86% RH)
AAT-12.5°C
QNH1013 hPa
Density Alt-2,083 ft
Elevation59 ft
Report Wrong Elevation
Raw Report
CYBK 201500Z 15019KT 25SM FEW010 OVC025 M03/M05 A2992 RMK SC1SC8
SC TR SLP136=

Extra information for CYBK:More info

Metar Taf Metar & Taf Last 4 Metars F.Rules Stats Wind Profile Meteogram Temp Stats Airport Information Weather charts Add Link Nearby VenuesMetar ALERT Operation Metar Decoded Social comments